Whitharral, TX (79380)

3:35 AM CDT on April 21, 2015 (GMT -0500)
South Smyer | | Change Station
CLOSE
Current Station
Personal Weather Station
Location: Smyer, TX
Elevation: 3366 ft
Nearby Weather Stations

Elev 3366 ft 33.57 °N, 102.16 °W | Updated 7 seconds ago

Clear
Clear
51.6 °F
Feels Like 51.6 °F
N
4.9
Wind Variable Wind from South
Gusts 7.4 mph

Today
High -- | Low -- °F
--% Chance of Precip.
Yesterday
High -- | Low -- °F
Precip. -- in
7:11 AM 8:24 PM
Waxing Crescent, 9% visible
Pressure 29.83 in
Visibility 10.0 miles
Clouds Few 14000 ft
Scattered Clouds 20000 ft
Scattered Clouds 25000 ft
Dew Point 43 °F
Humidity 73%
Rainfall 0.00 in
Snow Depth Not available.
UV 0 out of 12
Pollen 8.00 out of 12
Air Quality Not available.
Flu Activity Local Activity
METAR KLBB 210753Z 14010KT 10SM FEW140 SCT200 SCT250 11/04 A2992 RMK AO2 SLP102 T01110039

More Conditions Fewer Conditions

Pressure 29.83 in
Visibility 10.0 miles
Clouds Few 14000 ft
Scattered Clouds 20000 ft
Scattered Clouds 25000 ft
Dew Point 43 °F
Humidity 73%
Rainfall 0.00 in
Snow Depth Not available.
UV 0 out of 12
Pollen 8.00 out of 12
Air Quality Not available.
Flu Activity Local Activity
METAR KLBB 210753Z 14010KT 10SM FEW140 SCT200 SCT250 11/04 A2992 RMK AO2 SLP102 T01110039

More Conditions Fewer Conditions

10-Day Weather Forecast

Almanac

Astronomy

Apr. 21, 2015 Rise Set
Actual Time
Civil Twilight
Nautical Twilight
Astronomical Twilight
Moon
Length of Visible Light
Length of Day
Tomorrow will be .
, % of the Moon is Illuminated

Today's Extremes

State Highs State Lows

Community

WunderPhotos

Upload Photos

1,815,328 photos uploaded!

WunderBlogs® & News

Nearby

Air Quality

  Air Quality AQ Index Pollutant
Not available.

Snow Depth

Station Depth Elevation

Earthquake Activity

City Distance Mag. Time & Date
Minimum magnitude displayed is 2.5.

Coastal Water Temperatures

Place Temperature

Stations

Nearby Weather Stations

Station Location Temp. Windchill Dew Point Humidity Wind Precip. Elev Updated Type